sensor_id;sensor_type;location;lat;lon;timestamp;temperature;humidity
41060;DHT22;26811;53.160;8.202;2024-01-11T00:04:27;-5.00;99.90
41060;DHT22;26811;53.160;8.202;2024-01-11T00:09:28;-4.80;99.90
41060;DHT22;26811;53.160;8.202;2024-01-11T00:14:28;-4.80;99.90
41060;DHT22;26811;53.160;8.202;2024-01-11T00:19:29;-4.70;99.90
41060;DHT22;26811;53.160;8.202;2024-01-11T00:24:29;-4.70;99.90
41060;DHT22;26811;53.160;8.202;2024-01-11T00:29:30;-4.60;99.90
41060;DHT22;26811;53.160;8.202;2024-01-11T00:34:31;-4.50;99.90
41060;DHT22;26811;53.160;8.202;2024-01-11T00:39:31;-4.40;99.90
41060;DHT22;26811;53.160;8.202;2024-01-11T00:44:32;-4.40;99.90
41060;DHT22;26811;53.160;8.202;2024-01-11T00:49:33;-4.50;99.90
41060;DHT22;26811;53.160;8.202;2024-01-11T00:54:33;-4.50;99.90
41060;DHT22;26811;53.160;8.202;2024-01-11T00:59:34;-4.50;99.90
41060;DHT22;26811;53.160;8.202;2024-01-11T01:04:38;-4.50;99.90
41060;DHT22;26811;53.160;8.202;2024-01-11T01:09:39;-4.40;99.90
41060;DHT22;26811;53.160;8.202;2024-01-11T01:14:40;-4.50;99.90
41060;DHT22;26811;53.160;8.202;2024-01-11T01:19:40;-4.50;99.90
41060;DHT22;26811;53.160;8.202;2024-01-11T01:24:41;-4.60;99.90
41060;DHT22;26811;53.160;8.202;2024-01-11T01:29:41;-4.60;99.90
41060;DHT22;26811;53.160;8.202;2024-01-11T01:34:42;-4.50;99.90
41060;DHT22;26811;53.160;8.202;2024-01-11T01:39:42;-4.50;99.90
41060;DHT22;26811;53.160;8.202;2024-01-11T01:44:43;-4.50;99.90
41060;DHT22;26811;53.160;8.202;2024-01-11T01:49:44;-4.50;99.90
41060;DHT22;26811;53.160;8.202;2024-01-11T01:54:45;-4.50;99.90
41060;DHT22;26811;53.160;8.202;2024-01-11T01:59:49;-4.60;99.90
41060;DHT22;26811;53.160;8.202;2024-01-11T02:04:52;-4.60;99.90
41060;DHT22;26811;53.160;8.202;2024-01-11T02:09:53;-4.70;99.90
41060;DHT22;26811;53.160;8.202;2024-01-11T02:14:54;-4.70;99.90
41060;DHT22;26811;53.160;8.202;2024-01-11T02:19:55;-4.60;99.90
41060;DHT22;26811;53.160;8.202;2024-01-11T02:24:55;-4.60;99.90
41060;DHT22;26811;53.160;8.202;2024-01-11T02:29:58;-4.60;99.90
41060;DHT22;26811;53.160;8.202;2024-01-11T02:34:58;-4.70;99.90
41060;DHT22;26811;53.160;8.202;2024-01-11T02:39:59;-4.70;99.90
41060;DHT22;26811;53.160;8.202;2024-01-11T02:44:59;-4.70;99.90
41060;DHT22;26811;53.160;8.202;2024-01-11T02:50:00;-4.70;99.90
41060;DHT22;26811;53.160;8.202;2024-01-11T02:55:00;-4.70;99.90
41060;DHT22;26811;53.160;8.202;2024-01-11T03:00:01;-4.70;99.90
41060;DHT22;26811;53.160;8.202;2024-01-11T03:05:02;-4.80;99.90
41060;DHT22;26811;53.160;8.202;2024-01-11T03:10:02;-4.80;99.90
41060;DHT22;26811;53.160;8.202;2024-01-11T03:15:03;-4.80;99.90
41060;DHT22;26811;53.160;8.202;2024-01-11T03:20:04;-4.80;99.90
41060;DHT22;26811;53.160;8.202;2024-01-11T03:25:06;-4.80;99.90
41060;DHT22;26811;53.160;8.202;2024-01-11T03:30:07;-4.80;99.90
41060;DHT22;26811;53.160;8.202;2024-01-11T03:35:08;-4.70;99.90
41060;DHT22;26811;53.160;8.202;2024-01-11T03:40:09;-4.70;99.90
41060;DHT22;26811;53.160;8.202;2024-01-11T03:45:10;-4.80;99.90
41060;DHT22;26811;53.160;8.202;2024-01-11T03:50:10;-4.70;99.90
41060;DHT22;26811;53.160;8.202;2024-01-11T03:55:11;-4.80;99.90
41060;DHT22;26811;53.160;8.202;2024-01-11T04:00:12;-4.80;99.90
41060;DHT22;26811;53.160;8.202;2024-01-11T04:05:13;-4.90;99.90
41060;DHT22;26811;53.160;8.202;2024-01-11T04:10:17;-4.80;99.90
41060;DHT22;26811;53.160;8.202;2024-01-11T04:15:17;-4.80;99.90
41060;DHT22;26811;53.160;8.202;2024-01-11T04:20:18;-4.70;99.90
41060;DHT22;26811;53.160;8.202;2024-01-11T04:25:18;-4.70;99.90
41060;DHT22;26811;53.160;8.202;2024-01-11T04:30:20;-4.70;99.90
41060;DHT22;26811;53.160;8.202;2024-01-11T04:35:21;-4.60;99.90
41060;DHT22;26811;53.160;8.202;2024-01-11T04:40:21;-4.50;99.90
41060;DHT22;26811;53.160;8.202;2024-01-11T04:45:22;-4.40;99.90
41060;DHT22;26811;53.160;8.202;2024-01-11T04:50:22;-4.40;99.90
41060;DHT22;26811;53.160;8.202;2024-01-11T04:55:23;-4.20;99.90
41060;DHT22;26811;53.160;8.202;2024-01-11T05:00:23;-4.20;99.90
41060;DHT22;26811;53.160;8.202;2024-01-11T05:05:24;-4.10;99.90
41060;DHT22;26811;53.160;8.202;2024-01-11T05:10:24;-4.10;99.90
41060;DHT22;26811;53.160;8.202;2024-01-11T05:15:25;-4.10;99.90
41060;DHT22;26811;53.160;8.202;2024-01-11T05:20:25;-4.10;99.90
41060;DHT22;26811;53.160;8.202;2024-01-11T05:25:26;-4.10;99.90
41060;DHT22;26811;53.160;8.202;2024-01-11T05:30:27;-4.10;99.90
41060;DHT22;26811;53.160;8.202;2024-01-11T05:35:30;-4.10;99.90
41060;DHT22;26811;53.160;8.202;2024-01-11T05:40:30;-4.00;99.90
41060;DHT22;26811;53.160;8.202;2024-01-11T05:45:31;-4.00;99.90
41060;DHT22;26811;53.160;8.202;2024-01-11T05:50:32;-3.90;99.90
41060;DHT22;26811;53.160;8.202;2024-01-11T05:55:32;-3.80;99.90
41060;DHT22;26811;53.160;8.202;2024-01-11T06:00:33;-3.80;99.90
41060;DHT22;26811;53.160;8.202;2024-01-11T06:05:34;-3.80;99.90
41060;DHT22;26811;53.160;8.202;2024-01-11T06:10:34;-3.80;99.90
41060;DHT22;26811;53.160;8.202;2024-01-11T06:15:35;-3.70;99.90
41060;DHT22;26811;53.160;8.202;2024-01-11T06:20:35;-3.70;99.90
41060;DHT22;26811;53.160;8.202;2024-01-11T06:25:36;-3.70;99.90
41060;DHT22;26811;53.160;8.202;2024-01-11T06:30:37;-3.60;99.90
41060;DHT22;26811;53.160;8.202;2024-01-11T06:35:38;-3.60;99.90
41060;DHT22;26811;53.160;8.202;2024-01-11T06:40:38;-3.50;99.90
41060;DHT22;26811;53.160;8.202;2024-01-11T06:45:39;-3.40;99.90
41060;DHT22;26811;53.160;8.202;2024-01-11T06:50:39;-3.30;99.90
41060;DHT22;26811;53.160;8.202;2024-01-11T06:55:40;-3.20;99.90
41060;DHT22;26811;53.160;8.202;2024-01-11T07:00:42;-3.20;99.90
41060;DHT22;26811;53.160;8.202;2024-01-11T07:05:45;-3.20;99.90
41060;DHT22;26811;53.160;8.202;2024-01-11T07:10:46;-3.20;99.90
41060;DHT22;26811;53.160;8.202;2024-01-11T07:15:46;-3.20;99.90
41060;DHT22;26811;53.160;8.202;2024-01-11T07:20:48;-3.20;99.90
41060;DHT22;26811;53.160;8.202;2024-01-11T07:25:49;-3.20;99.90
41060;DHT22;26811;53.160;8.202;2024-01-11T07:30:49;-3.10;99.90
41060;DHT22;26811;53.160;8.202;2024-01-11T07:35:50;-3.10;99.90
41060;DHT22;26811;53.160;8.202;2024-01-11T07:40:50;-3.10;99.90
41060;DHT22;26811;53.160;8.202;2024-01-11T07:45:51;-3.00;99.90
41060;DHT22;26811;53.160;8.202;2024-01-11T07:50:52;-2.90;99.90
41060;DHT22;26811;53.160;8.202;2024-01-11T07:55:52;-2.90;99.90
41060;DHT22;26811;53.160;8.202;2024-01-11T08:00:53;-2.80;99.90
41060;DHT22;26811;53.160;8.202;2024-01-11T08:05:54;-2.70;99.90
41060;DHT22;26811;53.160;8.202;2024-01-11T08:10:55;-2.60;99.90
41060;DHT22;26811;53.160;8.202;2024-01-11T08:15:55;-2.50;99.90
41060;DHT22;26811;53.160;8.202;2024-01-11T08:20:56;-2.50;99.90
41060;DHT22;26811;53.160;8.202;2024-01-11T08:25:56;-2.40;99.90
41060;DHT22;26811;53.160;8.202;2024-01-11T08:30:57;-2.30;99.90
41060;DHT22;26811;53.160;8.202;2024-01-11T08:35:57;-2.20;99.90
41060;DHT22;26811;53.160;8.202;2024-01-11T08:40:58;-2.10;99.90
41060;DHT22;26811;53.160;8.202;2024-01-11T08:46:02;-2.00;99.90
41060;DHT22;26811;53.160;8.202;2024-01-11T08:51:02;-1.90;99.90
41060;DHT22;26811;53.160;8.202;2024-01-11T08:56:03;-1.90;99.90
41060;DHT22;26811;53.160;8.202;2024-01-11T09:01:04;-1.80;99.90
41060;DHT22;26811;53.160;8.202;2024-01-11T09:06:04;-1.70;99.90
41060;DHT22;26811;53.160;8.202;2024-01-11T09:11:05;-1.60;99.90
41060;DHT22;26811;53.160;8.202;2024-01-11T09:16:05;-1.50;99.90
41060;DHT22;26811;53.160;8.202;2024-01-11T09:21:07;-1.40;99.90
41060;DHT22;26811;53.160;8.202;2024-01-11T09:26:09;-1.30;99.90
41060;DHT22;26811;53.160;8.202;2024-01-11T09:31:10;-1.20;99.90
41060;DHT22;26811;53.160;8.202;2024-01-11T09:36:12;-1.10;99.90
41060;DHT22;26811;53.160;8.202;2024-01-11T09:41:13;-1.00;99.90
41060;DHT22;26811;53.160;8.202;2024-01-11T09:46:15;-0.90;99.90
41060;DHT22;26811;53.160;8.202;2024-01-11T09:51:16;-0.90;99.90
41060;DHT22;26811;53.160;8.202;2024-01-11T09:56:17;-0.80;99.90
41060;DHT22;26811;53.160;8.202;2024-01-11T10:01:19;-0.70;99.90
41060;DHT22;26811;53.160;8.202;2024-01-11T10:06:21;-0.70;99.90
41060;DHT22;26811;53.160;8.202;2024-01-11T10:11:23;-0.60;99.90
41060;DHT22;26811;53.160;8.202;2024-01-11T10:16:24;-0.50;99.90
41060;DHT22;26811;53.160;8.202;2024-01-11T10:21:24;-0.50;99.90
41060;DHT22;26811;53.160;8.202;2024-01-11T10:26:28;-0.40;99.90
41060;DHT22;26811;53.160;8.202;2024-01-11T10:31:30;-0.30;99.90
41060;DHT22;26811;53.160;8.202;2024-01-11T10:36:31;-0.20;99.90
41060;DHT22;26811;53.160;8.202;2024-01-11T10:42:20;-0.20;99.90
41060;DHT22;26811;53.160;8.202;2024-01-11T10:46:56;-0.10;99.90
41060;DHT22;26811;53.160;8.202;2024-01-11T10:52:03;-0.10;99.90
41060;DHT22;26811;53.160;8.202;2024-01-11T10:57:06;0.00;99.90
41060;DHT22;26811;53.160;8.202;2024-01-11T11:02:08;0.00;99.90
41060;DHT22;26811;53.160;8.202;2024-01-11T11:07:12;0.10;99.90
41060;DHT22;26811;53.160;8.202;2024-01-11T11:12:14;0.30;99.90
41060;DHT22;26811;53.160;8.202;2024-01-11T11:17:16;0.50;99.90
41060;DHT22;26811;53.160;8.202;2024-01-11T11:22:17;0.60;99.90
41060;DHT22;26811;53.160;8.202;2024-01-11T11:27:19;0.60;99.90
41060;DHT22;26811;53.160;8.202;2024-01-11T11:32:35;0.70;99.90
41060;DHT22;26811;53.160;8.202;2024-01-11T11:37:39;0.80;99.90
41060;DHT22;26811;53.160;8.202;2024-01-11T11:42:40;0.80;99.90
41060;DHT22;26811;53.160;8.202;2024-01-11T11:47:41;0.90;99.90
41060;DHT22;26811;53.160;8.202;2024-01-11T11:52:43;0.90;99.90
41060;DHT22;26811;53.160;8.202;2024-01-11T11:57:45;1.00;99.90
41060;DHT22;26811;53.160;8.202;2024-01-11T12:02:47;1.00;99.90
41060;DHT22;26811;53.160;8.202;2024-01-11T12:07:48;1.10;99.90
41060;DHT22;26811;53.160;8.202;2024-01-11T12:12:48;1.10;99.90
41060;DHT22;26811;53.160;8.202;2024-01-11T12:17:50;1.10;99.90
41060;DHT22;26811;53.160;8.202;2024-01-11T12:22:58;1.10;99.90
41060;DHT22;26811;53.160;8.202;2024-01-11T12:27:59;1.10;99.90
41060;DHT22;26811;53.160;8.202;2024-01-11T12:33:00;1.10;99.90
41060;DHT22;26811;53.160;8.202;2024-01-11T12:38:05;1.10;99.90
41060;DHT22;26811;53.160;8.202;2024-01-11T12:43:11;1.20;99.90
41060;DHT22;26811;53.160;8.202;2024-01-11T12:48:12;1.20;99.90
41060;DHT22;26811;53.160;8.202;2024-01-11T12:53:15;1.30;99.90
41060;DHT22;26811;53.160;8.202;2024-01-11T12:58:22;1.30;99.90
41060;DHT22;26811;53.160;8.202;2024-01-11T13:03:22;1.30;99.90
41060;DHT22;26811;53.160;8.202;2024-01-11T13:08:25;1.30;99.90
41060;DHT22;26811;53.160;8.202;2024-01-11T13:13:27;1.30;99.90
41060;DHT22;26811;53.160;8.202;2024-01-11T13:18:28;1.40;99.90
41060;DHT22;26811;53.160;8.202;2024-01-11T13:23:29;1.40;99.90
41060;DHT22;26811;53.160;8.202;2024-01-11T13:28:30;1.40;99.90
41060;DHT22;26811;53.160;8.202;2024-01-11T13:33:31;1.40;99.90
41060;DHT22;26811;53.160;8.202;2024-01-11T13:38:31;1.50;99.90
41060;DHT22;26811;53.160;8.202;2024-01-11T13:43:32;1.60;99.90
41060;DHT22;26811;53.160;8.202;2024-01-11T13:48:32;1.60;99.90
41060;DHT22;26811;53.160;8.202;2024-01-11T13:53:33;1.60;99.90
41060;DHT22;26811;53.160;8.202;2024-01-11T13:58:33;1.60;99.90
41060;DHT22;26811;53.160;8.202;2024-01-11T14:03:34;1.70;99.90
41060;DHT22;26811;53.160;8.202;2024-01-11T14:08:35;1.70;99.90
41060;DHT22;26811;53.160;8.202;2024-01-11T14:13:36;1.70;99.90
41060;DHT22;26811;53.160;8.202;2024-01-11T14:18:36;1.60;99.90
41060;DHT22;26811;53.160;8.202;2024-01-11T14:23:37;1.60;99.90
41060;DHT22;26811;53.160;8.202;2024-01-11T14:28:38;1.60;99.90
41060;DHT22;26811;53.160;8.202;2024-01-11T14:33:42;1.60;99.90
41060;DHT22;26811;53.160;8.202;2024-01-11T14:38:43;1.60;99.90
41060;DHT22;26811;53.160;8.202;2024-01-11T14:43:44;1.60;99.90
41060;DHT22;26811;53.160;8.202;2024-01-11T14:48:44;1.60;99.90
41060;DHT22;26811;53.160;8.202;2024-01-11T14:53:45;1.60;99.90
41060;DHT22;26811;53.160;8.202;2024-01-11T14:58:45;1.60;99.90
41060;DHT22;26811;53.160;8.202;2024-01-11T15:03:46;1.60;99.90
41060;DHT22;26811;53.160;8.202;2024-01-11T15:08:46;1.60;99.90
41060;DHT22;26811;53.160;8.202;2024-01-11T15:13:47;1.60;99.90
41060;DHT22;26811;53.160;8.202;2024-01-11T15:18:47;1.60;99.90
41060;DHT22;26811;53.160;8.202;2024-01-11T15:23:49;1.60;99.90
41060;DHT22;26811;53.160;8.202;2024-01-11T15:28:50;1.50;99.90
41060;DHT22;26811;53.160;8.202;2024-01-11T15:33:51;1.60;99.90
41060;DHT22;26811;53.160;8.202;2024-01-11T15:38:51;1.60;99.90
41060;DHT22;26811;53.160;8.202;2024-01-11T15:43:52;1.50;99.90
41060;DHT22;26811;53.160;8.202;2024-01-11T15:48:52;1.50;99.90
41060;DHT22;26811;53.160;8.202;2024-01-11T15:53:53;1.50;99.90
41060;DHT22;26811;53.160;8.202;2024-01-11T15:58:53;1.50;99.90
41060;DHT22;26811;53.160;8.202;2024-01-11T16:03:54;1.50;99.90
41060;DHT22;26811;53.160;8.202;2024-01-11T16:08:54;1.50;99.90
41060;DHT22;26811;53.160;8.202;2024-01-11T16:13:55;1.50;99.90
41060;DHT22;26811;53.160;8.202;2024-01-11T16:18:55;1.50;99.90
41060;DHT22;26811;53.160;8.202;2024-01-11T16:23:57;1.50;99.90
41060;DHT22;26811;53.160;8.202;2024-01-11T16:28:58;1.50;99.90
41060;DHT22;26811;53.160;8.202;2024-01-11T16:33:58;1.40;99.90
41060;DHT22;26811;53.160;8.202;2024-01-11T16:38:59;1.40;99.90
41060;DHT22;26811;53.160;8.202;2024-01-11T16:44:04;1.40;99.90
41060;DHT22;26811;53.160;8.202;2024-01-11T16:49:13;1.40;99.90
41060;DHT22;26811;53.160;8.202;2024-01-11T16:54:14;1.40;99.90
41060;DHT22;26811;53.160;8.202;2024-01-11T16:59:20;1.40;99.90
41060;DHT22;26811;53.160;8.202;2024-01-11T17:04:28;1.50;99.90
41060;DHT22;26811;53.160;8.202;2024-01-11T17:09:31;1.50;99.90
41060;DHT22;26811;53.160;8.202;2024-01-11T17:14:32;1.40;99.90
41060;DHT22;26811;53.160;8.202;2024-01-11T17:19:32;1.50;99.90
41060;DHT22;26811;53.160;8.202;2024-01-11T17:24:33;1.40;99.90
41060;DHT22;26811;53.160;8.202;2024-01-11T17:29:35;1.40;99.90
41060;DHT22;26811;53.160;8.202;2024-01-11T17:34:36;1.40;99.90
41060;DHT22;26811;53.160;8.202;2024-01-11T17:39:37;1.40;99.90
41060;DHT22;26811;53.160;8.202;2024-01-11T17:44:37;1.40;99.90
41060;DHT22;26811;53.160;8.202;2024-01-11T17:49:39;1.40;99.90
41060;DHT22;26811;53.160;8.202;2024-01-11T17:54:41;1.40;99.90
41060;DHT22;26811;53.160;8.202;2024-01-11T17:59:43;1.40;99.90
41060;DHT22;26811;53.160;8.202;2024-01-11T18:04:43;1.40;99.90
41060;DHT22;26811;53.160;8.202;2024-01-11T18:09:44;1.40;99.90
41060;DHT22;26811;53.160;8.202;2024-01-11T18:14:45;1.40;99.90
41060;DHT22;26811;53.160;8.202;2024-01-11T18:19:47;1.40;99.90
41060;DHT22;26811;53.160;8.202;2024-01-11T18:25:56;1.40;99.90
41060;DHT22;26811;53.160;8.202;2024-01-11T18:30:57;1.40;99.90
41060;DHT22;26811;53.160;8.202;2024-01-11T18:35:58;1.30;99.90
41060;DHT22;26811;53.160;8.202;2024-01-11T18:40:58;1.20;99.90
41060;DHT22;26811;53.160;8.202;2024-01-11T18:45:59;1.20;99.90
41060;DHT22;26811;53.160;8.202;2024-01-11T18:51:00;1.20;99.90
41060;DHT22;26811;53.160;8.202;2024-01-11T18:56:01;1.10;99.90
41060;DHT22;26811;53.160;8.202;2024-01-11T19:01:01;1.10;99.90
41060;DHT22;26811;53.160;8.202;2024-01-11T19:06:08;1.00;99.90
41060;DHT22;26811;53.160;8.202;2024-01-11T19:11:08;0.90;99.90
41060;DHT22;26811;53.160;8.202;2024-01-11T19:16:09;0.80;99.90
41060;DHT22;26811;53.160;8.202;2024-01-11T19:21:09;0.80;99.90
41060;DHT22;26811;53.160;8.202;2024-01-11T19:26:10;0.80;99.90
41060;DHT22;26811;53.160;8.202;2024-01-11T19:31:10;0.80;99.90
41060;DHT22;26811;53.160;8.202;2024-01-11T19:36:11;0.90;99.90
41060;DHT22;26811;53.160;8.202;2024-01-11T19:41:12;0.80;99.90
41060;DHT22;26811;53.160;8.202;2024-01-11T19:46:19;0.80;99.90
41060;DHT22;26811;53.160;8.202;2024-01-11T19:51:19;0.80;99.90
41060;DHT22;26811;53.160;8.202;2024-01-11T19:56:21;0.80;99.90
41060;DHT22;26811;53.160;8.202;2024-01-11T20:01:22;0.70;99.90
41060;DHT22;26811;53.160;8.202;2024-01-11T20:06:23;0.70;99.90
41060;DHT22;26811;53.160;8.202;2024-01-11T20:11:24;0.60;99.90
41060;DHT22;26811;53.160;8.202;2024-01-11T20:16:25;0.60;99.90
41060;DHT22;26811;53.160;8.202;2024-01-11T20:21:25;0.60;99.90
41060;DHT22;26811;53.160;8.202;2024-01-11T20:26:26;0.50;99.90
41060;DHT22;26811;53.160;8.202;2024-01-11T20:31:26;0.50;99.90
41060;DHT22;26811;53.160;8.202;2024-01-11T20:36:28;0.40;99.90
41060;DHT22;26811;53.160;8.202;2024-01-11T20:41:29;0.30;99.90
41060;DHT22;26811;53.160;8.202;2024-01-11T20:46:29;0.30;99.90
41060;DHT22;26811;53.160;8.202;2024-01-11T20:51:30;0.20;99.90
41060;DHT22;26811;53.160;8.202;2024-01-11T20:56:30;0.20;99.90
41060;DHT22;26811;53.160;8.202;2024-01-11T21:01:32;0.10;99.90
41060;DHT22;26811;53.160;8.202;2024-01-11T21:06:33;0.10;99.90
41060;DHT22;26811;53.160;8.202;2024-01-11T21:11:33;0.10;99.90
41060;DHT22;26811;53.160;8.202;2024-01-11T21:16:34;0.10;99.90
41060;DHT22;26811;53.160;8.202;2024-01-11T21:21:41;0.00;99.90
41060;DHT22;26811;53.160;8.202;2024-01-11T21:26:42;0.00;99.90
41060;DHT22;26811;53.160;8.202;2024-01-11T21:31:43;0.00;99.90
41060;DHT22;26811;53.160;8.202;2024-01-11T21:36:43;0.00;99.90
41060;DHT22;26811;53.160;8.202;2024-01-11T21:41:44;0.00;99.90
41060;DHT22;26811;53.160;8.202;2024-01-11T21:46:44;0.00;99.90
41060;DHT22;26811;53.160;8.202;2024-01-11T21:51:45;0.00;99.90
41060;DHT22;26811;53.160;8.202;2024-01-11T21:56:47;-0.10;99.90
41060;DHT22;26811;53.160;8.202;2024-01-11T22:01:47;-0.10;99.90
41060;DHT22;26811;53.160;8.202;2024-01-11T22:06:48;-0.10;99.90
41060;DHT22;26811;53.160;8.202;2024-01-11T22:11:49;-0.10;99.90
41060;DHT22;26811;53.160;8.202;2024-01-11T22:16:50;-0.10;99.90
41060;DHT22;26811;53.160;8.202;2024-01-11T22:21:50;-0.10;99.90
41060;DHT22;26811;53.160;8.202;2024-01-11T22:26:51;-0.10;99.90
41060;DHT22;26811;53.160;8.202;2024-01-11T22:31:51;-0.20;99.90
41060;DHT22;26811;53.160;8.202;2024-01-11T22:36:52;-0.20;99.90
41060;DHT22;26811;53.160;8.202;2024-01-11T22:41:55;-0.20;99.90
41060;DHT22;26811;53.160;8.202;2024-01-11T22:46:56;-0.30;99.90
41060;DHT22;26811;53.160;8.202;2024-01-11T22:51:56;-0.40;99.90
41060;DHT22;26811;53.160;8.202;2024-01-11T22:56:57;-0.40;99.90
41060;DHT22;26811;53.160;8.202;2024-01-11T23:01:58;-0.40;99.90
41060;DHT22;26811;53.160;8.202;2024-01-11T23:06:58;-0.40;99.90
41060;DHT22;26811;53.160;8.202;2024-01-11T23:11:59;-0.50;99.90
41060;DHT22;26811;53.160;8.202;2024-01-11T23:16:59;-0.50;99.90
41060;DHT22;26811;53.160;8.202;2024-01-11T23:22:00;-0.50;99.90
41060;DHT22;26811;53.160;8.202;2024-01-11T23:27:01;-0.50;99.90
41060;DHT22;26811;53.160;8.202;2024-01-11T23:32:03;-0.50;99.90
41060;DHT22;26811;53.160;8.202;2024-01-11T23:37:04;-0.50;99.90
41060;DHT22;26811;53.160;8.202;2024-01-11T23:42:05;-0.60;99.90
41060;DHT22;26811;53.160;8.202;2024-01-11T23:47:07;-0.70;99.90
41060;DHT22;26811;53.160;8.202;2024-01-11T23:52:08;-0.60;99.90
41060;DHT22;26811;53.160;8.202;2024-01-11T23:57:08;-0.70;99.90
